createdAt,value
2022-08-20T00:01:32.595Z,15.52
2022-08-20T00:05:40.872Z,15.63
2022-08-20T00:09:43.372Z,16.13
2022-08-20T00:13:50.114Z,15.23
2022-08-20T00:17:52.206Z,16.00
2022-08-20T00:21:58.449Z,16.13
2022-08-20T00:26:00.023Z,14.73
2022-08-20T00:30:01.999Z,15.60
2022-08-20T00:34:03.472Z,14.90
2022-08-20T00:38:05.148Z,15.05
2022-08-20T00:42:07.688Z,15.07
2022-08-20T00:46:18.764Z,15.55
2022-08-20T00:50:26.091Z,13.60
2022-08-20T00:54:38.847Z,14.82
2022-08-20T00:58:42.962Z,13.35
2022-08-20T01:02:46.507Z,14.07
2022-08-20T01:06:48.565Z,13.95
2022-08-20T01:10:53.777Z,13.35
2022-08-20T01:14:58.751Z,14.75
2022-08-20T01:19:01.794Z,13.48
2022-08-20T01:23:27.756Z,12.20
2022-08-20T01:27:30.845Z,13.18
2022-08-20T01:31:37.254Z,13.18
2022-08-20T01:35:41.125Z,13.07
2022-08-20T01:39:42.679Z,13.25
2022-08-20T01:43:46.142Z,13.95
2022-08-20T01:47:49.699Z,14.07
2022-08-20T01:51:54.143Z,15.10
2022-08-20T01:55:55.764Z,15.35
2022-08-20T01:59:57.281Z,13.10
2022-08-20T02:04:00.193Z,13.57
2022-08-20T02:08:02.075Z,13.90
2022-08-20T02:12:06.050Z,14.38
2022-08-20T02:16:08.443Z,15.18
2022-08-20T02:20:13.765Z,15.48
2022-08-20T02:24:15.291Z,15.32
2022-08-20T02:28:19.835Z,15.60
2022-08-20T02:32:32.507Z,17.25
2022-08-20T02:36:37.269Z,15.25
2022-08-20T02:40:39.786Z,17.80
2022-08-20T02:44:41.505Z,16.48
2022-08-20T02:48:42.984Z,16.13
2022-08-20T02:52:51.469Z,16.30
2022-08-20T02:56:53.616Z,15.10
2022-08-20T03:00:56.582Z,16.33
2022-08-20T03:04:58.171Z,15.38
2022-08-20T03:09:00.048Z,16.08
2022-08-20T03:13:03.036Z,15.88
2022-08-20T03:17:04.808Z,17.98
2022-08-20T03:21:07.743Z,17.35
2022-08-20T03:25:11.907Z,19.05
2022-08-20T03:29:13.541Z,16.58
2022-08-20T03:33:16.184Z,17.60
2022-08-20T03:37:17.674Z,18.02
2022-08-20T03:41:19.189Z,18.95
2022-08-20T03:45:22.568Z,19.52
2022-08-20T03:49:24.379Z,20.48
2022-08-20T03:53:25.831Z,21.08
2022-08-20T03:57:28.449Z,22.02
2022-08-20T04:01:45.616Z,22.00
2022-08-20T04:05:49.284Z,22.55
2022-08-20T04:09:55.168Z,21.27
2022-08-20T04:13:56.583Z,23.25
2022-08-20T04:17:58.465Z,23.15
2022-08-20T04:22:00.115Z,23.55
2022-08-20T04:26:01.551Z,22.73
2022-08-20T04:30:05.467Z,23.50
2022-08-20T04:34:09.812Z,23.75
2022-08-20T04:38:19.060Z,23.73
2022-08-20T04:42:20.569Z,22.58
2022-08-20T04:46:25.423Z,21.40
2022-08-20T04:50:27.169Z,22.17
2022-08-20T04:54:28.609Z,22.55
2022-08-20T04:58:35.076Z,23.23
2022-08-20T05:02:37.916Z,21.98
2022-08-20T05:06:41.130Z,20.58
2022-08-20T05:10:43.763Z,21.73
2022-08-20T05:14:47.130Z,21.15
2022-08-20T05:18:52.495Z,20.80
2022-08-20T05:22:56.085Z,21.30
2022-08-20T05:27:00.033Z,19.95
2022-08-20T05:31:02.370Z,21.10
2022-08-20T05:35:07.737Z,22.23
2022-08-20T05:39:10.324Z,20.85
2022-08-20T05:43:12.005Z,20.23
2022-08-20T05:47:14.206Z,20.45
2022-08-20T05:51:15.865Z,19.92
2022-08-20T05:55:17.575Z,19.17
2022-08-20T05:59:23.610Z,19.60
2022-08-20T06:03:43.972Z,21.85
2022-08-20T06:07:46.020Z,20.52
2022-08-20T06:11:47.516Z,20.30
2022-08-20T06:15:48.991Z,19.50
2022-08-20T06:19:50.644Z,19.00
2022-08-20T06:23:56.723Z,18.83
2022-08-20T06:27:59.739Z,18.55
2022-08-20T06:32:01.623Z,18.25
2022-08-20T06:36:03.794Z,18.67
2022-08-20T06:40:10.085Z,18.50
2022-08-20T06:44:11.631Z,16.92
2022-08-20T06:48:15.368Z,16.73
2022-08-20T06:52:17.402Z,19.10
2022-08-20T06:56:18.834Z,18.77
2022-08-20T07:00:20.668Z,19.75
2022-08-20T07:04:24.397Z,19.85
2022-08-20T07:08:25.870Z,19.52
2022-08-20T07:12:27.330Z,19.90
2022-08-20T07:16:28.960Z,17.55
2022-08-20T07:20:32.026Z,18.70
2022-08-20T07:24:35.711Z,19.27
2022-08-20T07:28:39.280Z,19.55
2022-08-20T07:32:41.744Z,19.42
2022-08-20T07:36:48.753Z,20.15
2022-08-20T07:40:55.633Z,19.35
2022-08-20T07:44:57.630Z,19.48
2022-08-20T07:48:59.276Z,20.40
2022-08-20T07:53:01.318Z,20.05
2022-08-20T07:57:03.349Z,19.88
2022-08-20T08:01:06.769Z,20.90
2022-08-20T08:05:09.409Z,21.65
2022-08-20T08:09:14.100Z,22.30
2022-08-20T08:13:15.790Z,22.00
2022-08-20T08:17:19.086Z,21.88
2022-08-20T08:21:22.359Z,23.00
2022-08-20T08:25:23.847Z,21.48
2022-08-20T08:29:25.371Z,25.13
2022-08-20T08:33:33.546Z,24.35
2022-08-20T08:37:37.648Z,24.53
2022-08-20T08:41:48.303Z,24.50
2022-08-20T08:46:03.637Z,24.52
2022-08-20T08:50:09.785Z,24.52
2022-08-20T08:54:16.983Z,24.05
2022-08-20T08:58:18.438Z,22.83
2022-08-20T09:02:22.962Z,24.60
2022-08-20T09:06:26.441Z,23.95
2022-08-20T09:10:27.914Z,23.67
2022-08-20T09:14:29.417Z,24.70
2022-08-20T09:18:31.060Z,24.85
2022-08-20T09:22:33.466Z,22.02
2022-08-20T09:26:38.940Z,22.90
2022-08-20T09:30:40.870Z,21.95
2022-08-20T09:34:46.037Z,23.05
2022-08-20T09:38:47.545Z,21.63
2022-08-20T09:42:50.601Z,22.27
2022-08-20T09:46:52.057Z,21.25
2022-08-20T09:50:53.793Z,20.50
2022-08-20T09:54:59.245Z,19.80
2022-08-20T09:59:03.048Z,18.42
2022-08-20T10:03:04.632Z,19.13
2022-08-20T10:07:09.240Z,16.30
2022-08-20T10:11:10.758Z,17.45
2022-08-20T10:15:13.117Z,15.90
2022-08-20T10:19:16.219Z,15.25
2022-08-20T10:23:17.731Z,14.23
2022-08-20T10:27:19.209Z,14.35
2022-08-20T10:31:20.699Z,12.00
2022-08-20T10:35:22.342Z,12.82
2022-08-20T10:39:23.801Z,11.73
2022-08-20T10:43:25.216Z,9.25
2022-08-20T10:47:32.398Z,9.77
2022-08-20T10:51:33.968Z,8.85
2022-08-20T10:55:35.432Z,7.78
2022-08-20T10:59:42.478Z,8.90
2022-08-20T11:03:43.962Z,9.80
2022-08-20T11:07:54.253Z,7.32
2022-08-20T11:11:57.885Z,7.90
2022-08-20T11:15:59.383Z,7.28
2022-08-20T11:20:02.115Z,7.90
2022-08-20T11:24:03.768Z,7.90
2022-08-20T11:28:06.345Z,7.13
2022-08-20T11:32:07.832Z,6.93
2022-08-20T11:36:09.504Z,7.28
2022-08-20T11:40:12.690Z,7.10
2022-08-20T11:44:21.753Z,7.30
2022-08-20T11:52:26.909Z,7.85
2022-08-20T11:56:30.697Z,7.25
2022-08-20T12:00:33.902Z,8.07
2022-08-20T12:04:35.794Z,6.90
2022-08-20T12:08:38.820Z,6.35
2022-08-20T12:12:41.281Z,5.53
2022-08-20T12:16:42.710Z,6.05
2022-08-20T12:20:44.192Z,5.70
2022-08-20T12:24:45.737Z,4.40
2022-08-20T12:28:47.374Z,4.97
2022-08-20T12:32:52.429Z,4.75
2022-08-20T12:37:10.041Z,5.22
2022-08-20T12:41:16.346Z,4.93
2022-08-20T12:45:18.265Z,5.05
2022-08-20T12:49:19.696Z,3.95
2022-08-20T12:53:21.129Z,5.20
2022-08-20T12:57:30.388Z,5.13
2022-08-20T13:01:31.939Z,5.35
2022-08-20T13:05:35.380Z,4.82
2022-08-20T13:09:36.812Z,6.10
2022-08-20T13:13:43.468Z,4.93
2022-08-20T13:17:44.916Z,4.88
2022-08-20T13:21:46.360Z,5.20
2022-08-20T13:25:56.616Z,5.90
2022-08-20T13:29:58.984Z,6.20
2022-08-20T13:34:00.625Z,5.60
2022-08-20T13:38:02.102Z,6.40
2022-08-20T13:42:03.694Z,6.93
2022-08-20T13:46:06.452Z,7.05
2022-08-20T13:50:16.323Z,7.72
2022-08-20T13:54:17.781Z,7.88
2022-08-20T13:58:19.550Z,8.57
2022-08-20T14:02:21.614Z,9.23
2022-08-20T14:06:23.172Z,9.55
2022-08-20T14:10:26.864Z,10.68
2022-08-20T14:14:28.321Z,10.82
2022-08-20T14:18:30.764Z,14.95
2022-08-20T14:22:32.159Z,20.73
2022-08-20T14:26:33.651Z,11.25
2022-08-20T14:30:35.681Z,11.30
2022-08-20T14:34:37.931Z,11.18
2022-08-20T14:38:44.939Z,10.52
2022-08-20T14:42:47.734Z,11.88
2022-08-20T14:46:53.243Z,11.43
2022-08-20T14:50:55.887Z,11.98
2022-08-20T14:54:57.655Z,12.60
2022-08-20T14:58:59.079Z,13.18
2022-08-20T15:03:00.816Z,12.57
2022-08-20T15:07:07.969Z,13.30
2022-08-20T15:11:13.380Z,13.63
2022-08-20T15:15:17.264Z,12.48
2022-08-20T15:19:18.918Z,13.98
2022-08-20T15:23:20.378Z,12.85
2022-08-20T15:27:24.167Z,13.23
2022-08-20T15:31:25.805Z,12.45
2022-08-20T15:35:28.440Z,12.93
2022-08-20T15:39:29.916Z,13.45
2022-08-20T15:43:32.179Z,12.80
2022-08-20T15:47:48.686Z,12.38
2022-08-20T15:51:50.354Z,14.52
2022-08-20T15:56:02.761Z,14.88
2022-08-20T16:00:22.791Z,13.32
2022-08-20T16:04:49.244Z,12.95
2022-08-20T16:09:14.420Z,14.20
2022-08-20T16:13:50.265Z,13.07
2022-08-20T16:18:24.560Z,13.85
2022-08-20T16:22:29.570Z,13.32
2022-08-20T16:26:33.681Z,14.55
2022-08-20T16:30:43.729Z,15.98
2022-08-20T16:34:57.393Z,21.63
2022-08-20T16:39:02.868Z,17.60
2022-08-20T16:43:07.021Z,17.38
2022-08-20T16:47:19.007Z,14.85
2022-08-20T16:51:34.187Z,14.52
2022-08-20T16:55:35.618Z,13.85
2022-08-20T16:59:54.858Z,13.90
2022-08-20T17:03:56.405Z,14.27
2022-08-20T17:08:07.080Z,14.05
2022-08-20T17:12:20.010Z,14.98
2022-08-20T17:16:21.582Z,14.80
2022-08-20T17:20:29.039Z,14.43
2022-08-20T17:24:32.467Z,14.10
2022-08-20T17:28:35.643Z,14.15
2022-08-20T17:32:48.241Z,15.18
2022-08-20T17:37:05.411Z,14.10
2022-08-20T17:41:17.565Z,15.05
2022-08-20T17:45:30.320Z,13.70
2022-08-20T17:49:39.348Z,23.08
2022-08-20T17:53:43.644Z,15.85
2022-08-20T17:57:48.344Z,17.63
2022-08-20T18:01:49.856Z,17.55
2022-08-20T18:06:08.302Z,16.27
2022-08-20T18:10:15.181Z,19.15
2022-08-20T18:14:41.429Z,13.80
2022-08-20T18:18:57.154Z,16.52
2022-08-20T18:23:01.295Z,36.03
2022-08-20T18:27:09.125Z,11.90
2022-08-20T18:31:25.222Z,8.75
2022-08-20T18:35:35.874Z,9.07
2022-08-20T18:39:40.379Z,9.40
2022-08-20T18:43:42.744Z,9.15
2022-08-20T18:47:46.390Z,9.70
2022-08-20T18:51:50.857Z,8.20
2022-08-20T18:56:06.908Z,8.85
2022-08-20T19:00:14.147Z,10.15
2022-08-20T19:04:34.283Z,9.80
2022-08-20T19:08:51.044Z,9.18
2022-08-20T19:13:32.922Z,8.07
2022-08-20T19:18:08.215Z,7.95
2022-08-20T19:22:12.906Z,8.07
2022-08-20T19:26:25.027Z,9.13
2022-08-20T19:30:34.593Z,9.55
2022-08-20T19:34:36.512Z,9.93
2022-08-20T19:38:53.386Z,10.60
2022-08-20T19:42:56.393Z,10.40
2022-08-20T19:46:59.539Z,9.95
2022-08-20T19:51:34.944Z,10.55
2022-08-20T19:55:42.828Z,10.25
2022-08-20T19:59:53.581Z,9.30
2022-08-20T20:04:13.893Z,9.13
2022-08-20T20:08:15.456Z,9.20
2022-08-20T20:12:22.838Z,11.02
2022-08-20T20:16:24.700Z,12.18
2022-08-20T20:20:30.915Z,10.07
2022-08-20T20:24:43.071Z,9.35
2022-08-20T20:29:00.804Z,11.90
2022-08-20T20:33:13.547Z,14.30
2022-08-20T20:37:48.938Z,10.65
2022-08-20T20:41:54.090Z,11.13
2022-08-20T20:45:58.394Z,9.85
2022-08-20T20:50:06.588Z,9.23
2022-08-20T20:54:25.641Z,9.57
2022-08-20T20:58:28.810Z,9.52
2022-08-20T21:02:31.201Z,11.82
2022-08-20T21:06:32.651Z,10.95
2022-08-20T21:10:37.484Z,9.57
2022-08-20T21:14:39.133Z,9.60
2022-08-20T21:18:41.017Z,10.00
2022-08-20T21:22:42.825Z,10.30
2022-08-20T21:26:44.789Z,8.75
2022-08-20T21:30:46.222Z,9.07
2022-08-20T21:34:49.227Z,10.05
2022-08-20T21:38:51.372Z,10.10
2022-08-20T21:42:52.828Z,9.93
2022-08-20T21:46:55.595Z,8.57
2022-08-20T21:50:57.041Z,6.90
2022-08-20T21:54:59.403Z,8.65
2022-08-20T21:59:01.772Z,7.07
2022-08-20T22:03:03.288Z,5.40
2022-08-20T22:07:05.614Z,5.53
2022-08-20T22:11:09.330Z,6.43
2022-08-20T22:15:11.036Z,6.60
2022-08-20T22:19:16.140Z,6.28
2022-08-20T22:23:18.194Z,5.97
2022-08-20T22:27:19.641Z,6.63
2022-08-20T22:31:25.713Z,6.30
2022-08-20T22:35:27.850Z,6.28
2022-08-20T22:39:29.275Z,6.82
2022-08-20T22:43:30.729Z,6.22
2022-08-20T22:47:32.291Z,6.50
2022-08-20T22:51:38.717Z,6.18
2022-08-20T22:55:41.727Z,5.90
2022-08-20T22:59:49.646Z,6.00
2022-08-20T23:03:57.247Z,5.70
2022-08-20T23:08:00.228Z,6.53
2022-08-20T23:12:01.708Z,6.80
2022-08-20T23:16:04.086Z,6.20
2022-08-20T23:20:08.460Z,6.75
2022-08-20T23:24:14.121Z,7.07
2022-08-20T23:28:20.704Z,7.25
2022-08-20T23:32:22.144Z,6.43
2022-08-20T23:36:24.246Z,6.47
2022-08-20T23:40:28.325Z,6.72
2022-08-20T23:44:30.060Z,7.45
2022-08-20T23:48:31.801Z,7.00
2022-08-20T23:52:33.338Z,7.07
2022-08-20T23:56:34.818Z,7.00
